Time;durP1;ratioP1;P1;durP2;ratioP2;P2;SDS_P1;SDS_P2;PMS_P1;PMS_P2;Temp;Humidity;BMP_temperature;BMP_pressure;BME280_temperature;BME280_humidity;BME280_pressure;Samples;Min_cycle;Max_cycle;Signal;HPM_P1;HPM_P2
2021/08/23 00:01:30;;;;;;;8.90;5.82;;;19.40;99.90;;;;;;5105805;28;20024;-89
2021/08/23 00:03:56;;;;;;;8.77;5.82;;;19.40;99.90;;;;;;5107257;28;20028;-89
2021/08/23 00:06:21;;;;;;;11.43;5.25;;;19.40;99.90;;;;;;5105966;28;20085;-89
2021/08/23 00:08:51;;;;;;;7.45;5.05;;;19.40;99.90;;;;;;5105812;28;20082;-90
2021/08/23 00:11:19;;;;;;;9.02;5.18;;;19.40;99.90;;;;;;5088003;28;20032;-89
2021/08/23 00:13:49;;;;;;;8.27;4.70;;;19.40;99.90;;;;;;5088869;28;20341;-89
2021/08/23 00:16:14;;;;;;;8.45;5.30;;;19.40;99.90;;;;;;5094053;28;20032;-90
2021/08/23 00:18:40;;;;;;;8.40;5.20;;;19.40;99.90;;;;;;5092368;28;20028;-90
2021/08/23 00:21:12;;;;;;;8.43;5.22;;;19.40;99.90;;;;;;5093051;28;20027;-89
2021/08/23 00:23:40;;;;;;;8.02;4.53;;;19.40;99.90;;;;;;5092186;28;20423;-89
2021/08/23 00:26:06;;;;;;;7.55;4.85;;;19.30;99.90;;;;;;5091548;28;20031;-89
2021/08/23 00:28:31;;;;;;;7.07;4.65;;;19.30;99.90;;;;;;5091830;28;20024;-89
2021/08/23 00:30:57;;;;;;;6.65;4.50;;;19.30;99.90;;;;;;5091052;28;20027;-90
2021/08/23 00:33:23;;;;;;;7.30;4.30;;;19.30;99.90;;;;;;5091566;28;20495;-89
2021/08/23 00:35:48;;;;;;;9.80;4.88;;;19.30;99.90;;;;;;5091191;28;20032;-89
2021/08/23 00:38:14;;;;;;;6.45;4.03;;;19.30;99.90;;;;;;5092890;28;20107;-90
2021/08/23 00:40:40;;;;;;;6.43;3.67;;;19.30;99.90;;;;;;5091810;28;20118;-89
2021/08/23 00:43:06;;;;;;;5.78;4.20;;;19.30;99.90;;;;;;5091534;28;20385;-89
2021/08/23 00:45:32;;;;;;;6.70;3.80;;;19.30;99.90;;;;;;5091596;28;20028;-89
2021/08/23 00:47:59;;;;;;;5.93;4.10;;;19.30;99.90;;;;;;5091773;28;20409;-89
2021/08/23 00:50:24;;;;;;;6.75;3.63;;;19.20;99.90;;;;;;5090838;28;20393;-90
2021/08/23 00:52:51;;;;;;;6.10;3.50;;;19.20;99.90;;;;;;5091513;28;20250;-88
2021/08/23 00:55:17;;;;;;;7.78;3.92;;;19.20;99.90;;;;;;5091000;28;20115;-89
2021/08/23 00:57:43;;;;;;;5.88;3.10;;;19.20;99.90;;;;;;5091172;28;20119;-89
2021/08/23 01:00:10;;;;;;;5.95;3.80;;;19.20;99.90;;;;;;5090436;28;20166;-90
2021/08/23 01:02:44;;;;;;;4.85;3.30;;;19.10;99.90;;;;;;5091007;28;20035;-90
2021/08/23 01:05:18;;;;;;;6.00;3.22;;;19.10;99.90;;;;;;5090943;28;20020;-89
2021/08/23 01:07:46;;;;;;;5.13;3.58;;;19.10;99.90;;;;;;5091129;28;20023;-89
2021/08/23 01:10:16;;;;;;;5.68;3.30;;;19.10;99.90;;;;;;5089978;28;20133;-89
2021/08/23 01:12:42;;;;;;;5.65;3.33;;;19.10;99.90;;;;;;5091070;28;20034;-89
2021/08/23 01:15:08;;;;;;;6.55;3.30;;;19.00;99.90;;;;;;5090732;28;20089;-90
2021/08/23 01:17:34;;;;;;;5.18;3.10;;;19.00;99.90;;;;;;5092262;28;20103;-89
2021/08/23 01:20:03;;;;;;;5.63;3.35;;;19.00;99.90;;;;;;5090110;28;20112;-89
2021/08/23 01:22:36;;;;;;;6.68;3.10;;;19.10;99.90;;;;;;5090750;28;20050;-89
2021/08/23 01:25:03;;;;;;;4.72;3.35;;;19.00;99.90;;;;;;5090276;28;20400;-90
2021/08/23 01:27:33;;;;;;;5.32;3.67;;;19.00;99.90;;;;;;5091126;28;20105;-90
2021/08/23 01:30:25;;;;;;;5.50;3.75;;;19.00;99.90;;;;;;5089923;28;20020;-89
2021/08/23 01:32:51;;;;;;;5.93;4.15;;;19.00;99.90;;;;;;5085704;28;20028;-90
2021/08/23 01:35:16;;;;;;;5.32;3.65;;;18.90;99.90;;;;;;5091479;28;20027;-90
2021/08/23 01:37:42;;;;;;;7.07;3.70;;;18.90;99.90;;;;;;5090548;28;20028;-90
2021/08/23 01:40:08;;;;;;;8.27;4.32;;;18.90;99.90;;;;;;5088513;28;20339;-90
2021/08/23 01:42:34;;;;;;;6.07;4.13;;;18.90;99.90;;;;;;5090247;28;20464;-90
2021/08/23 01:45:00;;;;;;;6.50;4.10;;;18.80;99.90;;;;;;5089709;28;20020;-90
2021/08/23 01:47:25;;;;;;;8.23;4.20;;;18.80;99.90;;;;;;5090089;28;20024;-89
2021/08/23 01:49:51;;;;;;;7.28;4.22;;;18.80;99.90;;;;;;5089238;28;20217;-89
2021/08/23 01:52:17;;;;;;;6.32;4.43;;;18.80;99.90;;;;;;5089964;28;20488;-89
2021/08/23 01:54:43;;;;;;;6.35;4.00;;;18.70;99.90;;;;;;5088767;28;20472;-89
2021/08/23 01:57:16;;;;;;;5.80;4.18;;;18.70;99.90;;;;;;5089795;28;20107;-89
2021/08/23 01:59:43;;;;;;;7.57;4.35;;;18.70;99.90;;;;;;5089579;28;20348;-89
2021/08/23 02:02:09;;;;;;;7.00;4.30;;;18.70;99.90;;;;;;5091554;28;20036;-88
2021/08/23 02:04:34;;;;;;;5.78;4.45;;;18.70;99.90;;;;;;5089766;28;20384;-89
2021/08/23 02:07:00;;;;;;;8.25;4.43;;;18.60;99.90;;;;;;5090175;28;20363;-90
2021/08/23 02:09:26;;;;;;;6.78;4.63;;;18.60;99.90;;;;;;5090369;28;20477;-90
2021/08/23 02:11:51;;;;;;;9.30;4.95;;;18.60;99.90;;;;;;5089844;28;20392;-89
2021/08/23 02:14:17;;;;;;;8.55;4.82;;;18.60;99.90;;;;;;5089760;28;20059;-89
2021/08/23 02:16:43;;;;;;;7.40;5.28;;;18.50;99.90;;;;;;5091455;28;20031;-90
2021/08/23 02:19:09;;;;;;;8.20;4.93;;;18.50;99.90;;;;;;5089011;28;20122;-90
2021/08/23 02:21:46;;;;;;;7.22;5.43;;;18.50;99.90;;;;;;5089016;28;20487;-89
2021/08/23 02:24:12;;;;;;;7.80;4.75;;;18.50;99.90;;;;;;5088176;28;20028;-90
2021/08/23 02:26:38;;;;;;;5.72;4.18;;;18.50;99.90;;;;;;5089548;28;20064;-89
2021/08/23 02:29:03;;;;;;;7.78;4.97;;;18.50;99.90;;;;;;5088934;28;20028;-89
2021/08/23 02:31:29;;;;;;;5.80;4.25;;;18.50;99.90;;;;;;5090827;28;20502;-89
2021/08/23 02:33:55;;;;;;;6.50;4.03;;;18.50;99.90;;;;;;5089628;28;20424;-89
2021/08/23 02:36:20;;;;;;;7.30;4.80;;;18.40;99.90;;;;;;5089680;28;20412;-90
2021/08/23 02:38:48;;;;;;;7.28;4.65;;;18.40;99.90;;;;;;5089204;28;20028;-90
2021/08/23 02:41:14;;;;;;;6.33;4.80;;;18.40;99.90;;;;;;5089096;28;20036;-90
2021/08/23 02:43:39;;;;;;;6.60;4.32;;;18.30;99.90;;;;;;5089560;28;20032;-89
2021/08/23 02:46:05;;;;;;;7.30;4.32;;;18.30;99.90;;;;;;5090796;28;20366;-89
2021/08/23 02:48:31;;;;;;;9.38;4.30;;;18.30;99.90;;;;;;5090649;28;20103;-88
2021/08/23 02:50:56;;;;;;;6.38;4.60;;;18.30;99.90;;;;;;5088749;28;20050;-89
2021/08/23 02:53:22;;;;;;;8.23;5.00;;;18.30;99.90;;;;;;5090785;28;20028;-89
2021/08/23 02:55:47;;;;;;;7.30;4.32;;;18.30;99.90;;;;;;5089289;28;20434;-90
2021/08/23 02:58:13;;;;;;;8.38;4.90;;;18.30;99.90;;;;;;5097590;28;20118;-89
2021/08/23 03:00:39;;;;;;;8.65;5.00;;;18.30;99.90;;;;;;5094137;28;20027;-89
2021/08/23 03:03:04;;;;;;;7.47;4.13;;;18.40;99.90;;;;;;5090958;28;20028;-89
2021/08/23 03:05:30;;;;;;;6.68;4.28;;;18.40;99.90;;;;;;5089729;28;20024;-89
2021/08/23 03:07:55;;;;;;;6.82;4.60;;;18.40;99.90;;;;;;5089425;28;20077;-89
2021/08/23 03:10:22;;;;;;;7.45;4.78;;;18.40;99.90;;;;;;5088553;28;20095;-90
2021/08/23 03:12:47;;;;;;;7.03;4.47;;;18.40;99.90;;;;;;5089279;28;20028;-89
2021/08/23 03:15:13;;;;;;;7.50;5.03;;;18.40;99.90;;;;;;5089269;28;20119;-90
2021/08/23 03:17:38;;;;;;;8.20;4.90;;;18.40;99.90;;;;;;5090778;28;20032;-90
2021/08/23 03:20:05;;;;;;;10.48;5.28;;;18.40;99.90;;;;;;5090087;28;20081;-90
2021/08/23 03:22:30;;;;;;;8.00;4.93;;;18.40;99.90;;;;;;5089453;28;20028;-90
2021/08/23 03:24:56;;;;;;;6.85;4.82;;;18.40;99.90;;;;;;5088859;28;20581;-89
2021/08/23 03:27:21;;;;;;;7.50;4.68;;;18.50;99.90;;;;;;5090938;28;20048;-90
2021/08/23 03:29:51;;;;;;;7.50;5.20;;;18.50;99.90;;;;;;5088580;28;20341;-89
2021/08/23 03:32:18;;;;;;;9.18;5.28;;;18.50;99.90;;;;;;5089253;28;20082;-90
2021/08/23 03:34:43;;;;;;;10.38;5.75;;;18.40;99.90;;;;;;5088774;28;20034;-89
2021/08/23 03:37:09;;;;;;;8.88;5.35;;;18.50;99.90;;;;;;5089162;28;20024;-90
2021/08/23 03:39:35;;;;;;;9.05;5.60;;;18.40;99.90;;;;;;5089858;28;20477;-90
2021/08/23 03:42:01;;;;;;;8.10;4.80;;;18.40;99.90;;;;;;5090931;28;20400;-90
2021/08/23 03:44:26;;;;;;;6.60;4.82;;;18.40;99.90;;;;;;5090224;28;20571;-90
2021/08/23 03:46:52;;;;;;;6.93;4.60;;;18.40;99.90;;;;;;5089419;28;20024;-90
2021/08/23 03:49:18;;;;;;;6.72;4.85;;;18.40;99.90;;;;;;5088451;28;20491;-89
2021/08/23 03:51:44;;;;;;;8.32;5.10;;;18.40;99.90;;;;;;5093868;28;20473;-89
2021/08/23 03:54:10;;;;;;;7.32;5.38;;;18.50;99.90;;;;;;5092599;28;20119;-89
2021/08/23 03:56:35;;;;;;;7.68;5.50;;;18.50;99.90;;;;;;5092443;28;20032;-89
2021/08/23 03:59:01;;;;;;;8.88;5.30;;;18.50;99.90;;;;;;5093160;28;20032;-89
2021/08/23 04:01:26;;;;;;;7.55;5.30;;;18.50;99.90;;;;;;5092395;28;20064;-89
2021/08/23 04:03:53;;;;;;;10.05;5.82;;;18.50;99.90;;;;;;5093579;28;20507;-88
2021/08/23 04:06:18;;;;;;;12.00;6.88;;;18.50;99.90;;;;;;5091863;28;20115;-89
2021/08/23 04:08:44;;;;;;;9.13;5.88;;;18.50;99.90;;;;;;5092301;28;20059;-91
2021/08/23 04:11:14;;;;;;;8.32;5.70;;;18.50;99.90;;;;;;5093497;28;20043;-89
2021/08/23 04:13:41;;;;;;;10.98;7.03;;;18.50;99.90;;;;;;5093165;28;20117;-89
2021/08/23 04:16:14;;;;;;;11.23;6.93;;;18.50;99.90;;;;;;5091833;28;20460;-89
2021/08/23 04:18:41;;;;;;;8.73;6.07;;;18.50;99.90;;;;;;5091612;28;20222;-89
2021/08/23 04:21:06;;;;;;;11.75;8.50;;;18.50;99.90;;;;;;5091871;28;20024;-90
2021/08/23 04:23:32;;;;;;;10.63;7.35;;;18.60;99.90;;;;;;5094570;28;20472;-88
2021/08/23 04:25:58;;;;;;;16.38;12.00;;;18.60;99.90;;;;;;5093019;28;20103;-89
2021/08/23 04:28:23;;;;;;;15.02;11.23;;;18.60;99.90;;;;;;5092238;28;20016;-89
2021/08/23 04:30:49;;;;;;;15.25;11.45;;;18.60;99.90;;;;;;5091614;28;20023;-88
2021/08/23 04:33:16;;;;;;;19.63;15.15;;;18.60;99.90;;;;;;5092530;28;20427;-89
2021/08/23 04:35:42;;;;;;;18.45;14.68;;;18.60;99.90;;;;;;5093063;28;20026;-88
2021/08/23 04:38:08;;;;;;;20.38;15.25;;;18.60;99.90;;;;;;5091772;28;20035;-88
2021/08/23 04:40:34;;;;;;;21.00;14.82;;;18.60;99.90;;;;;;5092402;28;20021;-89
2021/08/23 04:43:00;;;;;;;19.77;14.63;;;18.60;99.90;;;;;;5093006;28;20062;-88
2021/08/23 04:45:25;;;;;;;19.33;13.70;;;18.60;99.90;;;;;;5094163;28;20440;-88
2021/08/23 04:47:51;;;;;;;18.42;13.95;;;18.60;99.90;;;;;;5092947;28;20161;-89
2021/08/23 04:50:17;;;;;;;19.27;15.20;;;18.60;99.90;;;;;;5091478;28;20293;-89
2021/08/23 04:52:44;;;;;;;19.38;15.02;;;18.60;99.90;;;;;;5093192;28;20051;-89
2021/08/23 04:55:11;;;;;;;26.38;18.42;;;18.60;99.90;;;;;;5091135;28;20099;-89
2021/08/23 04:57:37;;;;;;;22.70;16.48;;;18.60;99.90;;;;;;5091916;28;20411;-89
2021/08/23 05:00:11;;;;;;;22.15;15.88;;;18.60;99.90;;;;;;5092296;28;20020;-86
2021/08/23 05:02:38;;;;;;;21.17;16.67;;;18.60;99.90;;;;;;5091490;28;20043;-86
2021/08/23 05:05:05;;;;;;;24.23;18.27;;;18.60;99.90;;;;;;5092771;28;20055;-86
2021/08/23 05:07:31;;;;;;;20.95;16.15;;;18.60;99.90;;;;;;5092752;28;20119;-86
2021/08/23 05:09:57;;;;;;;20.98;16.42;;;18.60;99.90;;;;;;5090668;28;20181;-89
2021/08/23 05:12:22;;;;;;;27.70;20.15;;;18.60;99.90;;;;;;5093690;28;20028;-89
2021/08/23 05:14:48;;;;;;;28.55;20.95;;;18.60;99.90;;;;;;5090538;28;20051;-90
2021/08/23 05:17:14;;;;;;;27.58;20.25;;;18.60;99.90;;;;;;5092598;28;20024;-89
2021/08/23 05:19:39;;;;;;;25.25;18.63;;;18.60;99.90;;;;;;5090902;28;20024;-89
2021/08/23 05:22:05;;;;;;;29.23;20.27;;;18.60;99.90;;;;;;5091186;28;20028;-89
2021/08/23 05:24:30;;;;;;;29.23;20.50;;;18.60;99.90;;;;;;5090981;28;20369;-89
2021/08/23 05:26:56;;;;;;;27.50;20.25;;;18.60;99.90;;;;;;5091193;28;20024;-89
2021/08/23 05:29:22;;;;;;;25.65;19.67;;;18.60;99.90;;;;;;5090893;28;20059;-89
2021/08/23 05:31:47;;;;;;;27.33;17.30;;;18.60;99.90;;;;;;5092600;28;20405;-89
2021/08/23 05:34:13;;;;;;;31.35;22.30;;;18.60;99.90;;;;;;5092067;28;20122;-87
2021/08/23 05:36:38;;;;;;;31.70;21.98;;;18.60;99.90;;;;;;5090855;28;20180;-87
2021/08/23 05:39:04;;;;;;;26.23;19.23;;;18.60;99.90;;;;;;5088208;28;20054;-87
2021/08/23 05:41:32;;;;;;;31.15;22.48;;;18.60;99.90;;;;;;5076406;28;20072;-87
2021/08/23 05:43:59;;;;;;;30.63;22.13;;;18.70;99.90;;;;;;5071486;28;20377;-87
2021/08/23 05:46:25;;;;;;;28.95;21.90;;;18.70;99.90;;;;;;5071518;28;20147;-87
2021/08/23 05:48:51;;;;;;;28.27;21.38;;;18.70;99.90;;;;;;5070934;28;20505;-87
2021/08/23 05:51:18;;;;;;;31.55;22.90;;;18.70;99.90;;;;;;5069569;28;20025;-87
2021/08/23 05:53:44;;;;;;;28.67;21.85;;;18.70;99.90;;;;;;5070107;28;20592;-86
2021/08/23 05:56:10;;;;;;;31.85;22.77;;;18.70;99.90;;;;;;5069541;28;20055;-87
2021/08/23 05:58:36;;;;;;;33.03;23.65;;;18.70;99.90;;;;;;5069555;28;20067;-87
2021/08/23 06:01:05;;;;;;;34.13;23.95;;;18.70;99.90;;;;;;5068971;28;20035;-87
2021/08/23 06:03:31;;;;;;;36.78;25.58;;;18.70;99.90;;;;;;5072174;28;20135;-87
2021/08/23 06:05:57;;;;;;;38.88;26.63;;;18.70;99.90;;;;;;5065099;28;20060;-86
2021/08/23 06:08:23;;;;;;;33.88;24.88;;;18.70;99.90;;;;;;5070856;28;20044;-85
2021/08/23 06:10:49;;;;;;;38.35;26.35;;;18.70;99.90;;;;;;5069256;28;20032;-88
2021/08/23 06:13:14;;;;;;;45.83;31.15;;;18.60;99.90;;;;;;5069572;28;20036;-89
2021/08/23 06:15:40;;;;;;;45.60;31.80;;;18.60;99.90;;;;;;5070037;28;20410;-89
2021/08/23 06:18:05;;;;;;;45.92;29.98;;;18.60;99.90;;;;;;5070591;28;20028;-88
2021/08/23 06:20:31;;;;;;;40.30;26.98;;;18.60;99.90;;;;;;5071294;28;20024;-86
2021/08/23 06:22:56;;;;;;;38.50;25.70;;;18.70;99.90;;;;;;5070493;28;20043;-88
2021/08/23 06:25:22;;;;;;;32.38;22.92;;;18.70;99.90;;;;;;5069666;28;20361;-87
2021/08/23 06:27:48;;;;;;;28.25;20.20;;;18.60;99.90;;;;;;5069398;28;20032;-88
2021/08/23 06:30:14;;;;;;;26.95;18.98;;;18.60;99.90;;;;;;5069132;28;20017;-89
2021/08/23 06:32:39;;;;;;;26.20;19.58;;;18.60;99.90;;;;;;5069155;28;20103;-87
2021/08/23 06:35:05;;;;;;;24.58;18.70;;;18.60;99.90;;;;;;5069900;28;20027;-86
2021/08/23 06:37:31;;;;;;;24.92;16.08;;;18.70;99.90;;;;;;5069912;28;20031;-85
2021/08/23 06:40:00;;;;;;;26.50;19.02;;;18.70;99.90;;;;;;5068929;28;20393;-88
2021/08/23 06:42:26;;;;;;;26.13;18.98;;;18.70;99.90;;;;;;5069599;28;20028;-86
2021/08/23 06:44:51;;;;;;;26.60;19.63;;;18.70;99.90;;;;;;5070833;28;20032;-87
2021/08/23 06:47:17;;;;;;;24.92;18.70;;;18.70;99.90;;;;;;5071076;28;20025;-87
2021/08/23 06:49:43;;;;;;;28.30;19.60;;;18.70;99.90;;;;;;5069728;28;20020;-87
2021/08/23 06:52:09;;;;;;;23.92;18.00;;;18.70;99.90;;;;;;5070797;28;20035;-87
2021/08/23 06:54:35;;;;;;;24.63;18.33;;;18.80;99.90;;;;;;5069350;28;20124;-88
2021/08/23 06:57:01;;;;;;;25.00;18.88;;;18.80;99.90;;;;;;5069371;28;20535;-87
2021/08/23 06:59:28;;;;;;;28.73;19.98;;;18.80;99.90;;;;;;5056317;28;20494;-88
2021/08/23 07:01:54;;;;;;;26.80;20.02;;;18.70;99.90;;;;;;5051056;28;20029;-87
2021/08/23 07:04:20;;;;;;;29.60;20.23;;;18.80;99.90;;;;;;5050068;28;20170;-88
2021/08/23 07:06:46;;;;;;;25.52;18.75;;;18.70;99.90;;;;;;5050932;28;20107;-88
2021/08/23 07:09:12;;;;;;;30.13;20.27;;;18.80;99.90;;;;;;5060394;28;20372;-88
2021/08/23 07:11:37;;;;;;;25.15;18.67;;;18.80;99.90;;;;;;5069482;28;20025;-87
2021/08/23 07:14:03;;;;;;;23.83;18.17;;;18.80;99.90;;;;;;5069276;28;20028;-88
2021/08/23 07:16:29;;;;;;;23.02;16.63;;;18.80;99.90;;;;;;5069255;28;20124;-87
2021/08/23 07:18:54;;;;;;;22.58;16.67;;;18.80;99.90;;;;;;5064891;28;20404;-87
2021/08/23 07:21:20;;;;;;;20.90;15.95;;;18.80;99.90;;;;;;5050387;28;20167;-88
2021/08/23 07:23:45;;;;;;;22.25;16.10;;;18.80;99.90;;;;;;5050665;28;20477;-88
2021/08/23 07:26:11;;;;;;;17.83;14.15;;;18.80;99.90;;;;;;5053663;28;20284;-88
2021/08/23 07:28:37;;;;;;;18.42;12.88;;;18.80;99.90;;;;;;5058060;28;20056;-88
2021/08/23 07:31:03;;;;;;;18.33;12.93;;;18.80;99.90;;;;;;5073006;28;20143;-88
2021/08/23 07:33:29;;;;;;;15.82;11.85;;;18.80;99.90;;;;;;5073145;28;20487;-87
2021/08/23 07:35:54;;;;;;;15.40;11.80;;;18.70;99.90;;;;;;5073115;28;20028;-87
2021/08/23 07:38:20;;;;;;;13.38;10.32;;;18.70;99.90;;;;;;5073011;28;20487;-88
2021/08/23 07:40:45;;;;;;;14.15;10.57;;;18.70;99.90;;;;;;5073051;28;20467;-87
2021/08/23 07:43:11;;;;;;;14.13;11.13;;;18.70;99.90;;;;;;5073287;28;20061;-88
2021/08/23 07:45:38;;;;;;;13.35;10.40;;;18.70;99.90;;;;;;5073151;28;20421;-87
2021/08/23 07:48:04;;;;;;;12.93;10.27;;;18.70;99.90;;;;;;5072725;28;20024;-88
2021/08/23 07:50:30;;;;;;;11.80;9.10;;;18.70;99.90;;;;;;5072631;28;20024;-87
2021/08/23 07:52:56;;;;;;;11.52;8.52;;;18.70;99.90;;;;;;5073190;28;20085;-87
2021/08/23 07:55:21;;;;;;;13.20;9.73;;;18.70;99.90;;;;;;5072630;28;20058;-87
2021/08/23 07:57:49;;;;;;;11.10;8.50;;;18.80;99.90;;;;;;5072617;28;20477;-87
2021/08/23 08:00:18;;;;;;;11.73;8.90;;;18.80;99.90;;;;;;5072227;28;20527;-88
2021/08/23 08:02:44;;;;;;;;;;;18.80;99.90;;;;;;5074390;28;20028;-88
2021/08/23 08:05:12;;;;;;;12.73;9.32;;;18.80;99.90;;;;;;5072161;28;20380;-87
2021/08/23 08:07:38;;;;;;;12.45;8.95;;;18.90;99.90;;;;;;5072196;28;20098;-85
2021/08/23 08:10:05;;;;;;;11.85;9.65;;;18.90;99.90;;;;;;5073499;28;20111;-89
2021/08/23 08:12:31;;;;;;;13.63;9.77;;;19.00;99.90;;;;;;5073260;28;20024;-89
2021/08/23 08:14:57;;;;;;;13.15;10.18;;;18.90;99.90;;;;;;5073437;28;20039;-87
2021/08/23 08:17:23;;;;;;;15.40;10.30;;;18.90;99.90;;;;;;5072779;28;20036;-90
2021/08/23 08:19:49;;;;;;;13.30;10.05;;;18.90;99.90;;;;;;5071954;28;20028;-90
2021/08/23 08:22:15;;;;;;;14.95;11.77;;;19.00;99.90;;;;;;5073038;28;20124;-89
2021/08/23 08:24:41;;;;;;;16.40;12.52;;;19.10;99.90;;;;;;5071724;28;20024;-89
2021/08/23 08:27:07;;;;;;;20.63;15.00;;;19.10;99.90;;;;;;5072406;28;20032;-88
2021/08/23 08:29:33;;;;;;;22.05;16.52;;;19.10;99.90;;;;;;5071111;28;20059;-89
2021/08/23 08:31:58;;;;;;;20.33;15.68;;;19.20;99.90;;;;;;5072141;28;20035;-89
2021/08/23 08:34:24;;;;;;;18.58;15.68;;;19.20;99.90;;;;;;5073480;28;20491;-89
2021/08/23 08:36:51;;;;;;;21.55;16.98;;;19.20;99.90;;;;;;5071432;28;20028;-87
2021/08/23 08:39:17;;;;;;;18.70;14.98;;;19.30;99.90;;;;;;5069374;28;20111;-86
2021/08/23 08:41:42;;;;;;;18.88;15.00;;;19.40;99.90;;;;;;5071313;28;20107;-86
2021/08/23 08:44:08;;;;;;;21.10;14.20;;;19.40;99.90;;;;;;5067491;28;20028;-89
2021/08/23 08:46:34;;;;;;;18.15;14.93;;;19.50;99.90;;;;;;5067246;28;20017;-85
2021/08/23 08:49:02;;;;;;;19.45;14.27;;;19.50;99.90;;;;;;5070757;28;20020;-90
2021/08/23 08:51:29;;;;;;;18.48;14.10;;;19.50;99.90;;;;;;5069875;28;20116;-89
2021/08/23 08:53:55;;;;;;;17.70;13.63;;;19.50;99.90;;;;;;5070319;28;20051;-89
2021/08/23 08:56:21;;;;;;;19.23;14.40;;;19.60;99.90;;;;;;5070969;28;20115;-86
2021/08/23 08:58:46;;;;;;;17.73;13.48;;;19.60;99.90;;;;;;5069776;28;20025;-89
2021/08/23 09:01:12;;;;;;;20.92;15.10;;;19.70;99.90;;;;;;5071069;28;20032;-88
2021/08/23 09:03:46;;;;;;;15.80;13.38;;;19.70;99.90;;;;;;5072026;28;20500;-86
2021/08/23 09:06:12;;;;;;;18.73;15.85;;;19.70;99.90;;;;;;5070999;28;20044;-86
2021/08/23 09:08:43;;;;;;;19.63;15.57;;;19.80;99.90;;;;;;5071105;28;20032;-86
2021/08/23 09:11:17;;;;;;;18.30;14.73;;;19.80;99.90;;;;;;5071041;28;20020;-88
2021/08/23 09:13:58;;;;;;;14.35;12.02;;;19.80;99.90;;;;;;5072481;28;20537;-87
2021/08/23 09:16:28;;;;;;;19.10;13.18;;;19.90;99.90;;;;;;5073250;28;20016;-85
2021/08/23 09:18:53;;;;;;;17.33;13.70;;;19.90;99.90;;;;;;5072026;28;20028;-88
2021/08/23 09:21:31;;;;;;;20.67;14.68;;;19.90;99.50;;;;;;5072757;28;20025;-87
2021/08/23 09:23:58;;;;;;;22.75;15.98;;;19.90;99.90;;;;;;5071456;28;20420;-88
2021/08/23 09:26:30;;;;;;;18.30;14.80;;;20.00;99.70;;;;;;5072173;28;20125;-87
2021/08/23 09:28:59;;;;;;;16.42;13.38;;;20.00;99.90;;;;;;5070813;28;20078;-87
2021/08/23 09:31:31;;;;;;;17.75;13.77;;;20.00;99.90;;;;;;5071474;28;20027;-87
2021/08/23 09:33:59;;;;;;;21.45;14.73;;;20.00;99.90;;;;;;5071383;28;20043;-86
2021/08/23 09:36:26;;;;;;;19.33;15.95;;;20.00;99.60;;;;;;5072431;28;20024;-86
2021/08/23 09:38:58;;;;;;;19.38;14.48;;;20.00;99.30;;;;;;5075325;28;20025;-89
2021/08/23 09:41:25;;;;;;;19.05;16.00;;;20.10;99.90;;;;;;5073642;28;20035;-89
2021/08/23 09:44:19;;;;;;;20.17;16.02;;;20.10;99.40;;;;;;5073658;28;20124;-88
2021/08/23 09:46:56;;;;;;;15.85;14.05;;;20.20;99.40;;;;;;5060844;28;20033;-89
2021/08/23 09:49:21;;;;;;;20.60;14.75;;;20.20;99.10;;;;;;5073181;28;20027;-88
2021/08/23 09:51:47;;;;;;;17.08;13.65;;;20.30;98.70;;;;;;5072201;28;20032;-92
2021/08/23 09:54:17;;;;;;;15.98;14.18;;;20.30;99.00;;;;;;5073506;28;20056;-92
2021/08/23 09:56:47;;;;;;;16.77;13.93;;;20.30;99.10;;;;;;5072520;28;20029;-87
2021/08/23 09:59:24;;;;;;;15.70;13.48;;;20.30;99.20;;;;;;5072210;28;20400;-93
2021/08/23 10:01:53;;;;;;;16.80;14.68;;;20.40;99.00;;;;;;5070861;28;20025;-90
2021/08/23 10:04:19;;;;;;;17.02;13.98;;;20.40;99.00;;;;;;5070483;28;20358;-88
2021/08/23 10:06:47;;;;;;;18.55;14.00;;;20.40;98.90;;;;;;5075076;28;20468;-91
2021/08/23 10:09:24;;;;;;;16.40;13.05;;;20.40;98.90;;;;;;5072058;28;20472;-91
2021/08/23 10:11:53;;;;;;;16.13;13.57;;;20.50;99.10;;;;;;5072807;28;20021;-87
2021/08/23 10:14:19;;;;;;;18.52;14.63;;;20.50;99.10;;;;;;5069825;28;20032;-88
2021/08/23 10:16:45;;;;;;;15.45;13.02;;;20.50;98.90;;;;;;5071958;28;20037;-88
2021/08/23 10:19:11;;;;;;;16.30;13.77;;;20.60;99.10;;;;;;5072194;28;20481;-89
2021/08/23 10:21:41;;;;;;;18.27;14.43;;;20.60;99.30;;;;;;5071353;28;20028;-85
2021/08/23 10:24:07;;;;;;;17.30;14.80;;;20.60;99.20;;;;;;5071118;28;20086;-86
2021/08/23 10:26:59;;;;;;;15.63;12.95;;;20.60;98.70;;;;;;5009810;23;20421;-83
2021/08/23 10:29:36;;;;;;;17.33;12.30;;;20.60;98.30;;;;;;4968032;28;20098;-83
2021/08/23 10:32:09;;;;;;;15.23;12.13;;;20.60;98.20;;;;;;4986514;28;20109;-83
2021/08/23 10:34:35;;;;;;;13.27;10.45;;;20.60;97.80;;;;;;4987310;28;20027;-83
2021/08/23 10:37:01;;;;;;;12.63;10.40;;;20.60;98.10;;;;;;4971485;28;20027;-83
2021/08/23 10:39:28;;;;;;;14.45;11.00;;;20.60;98.20;;;;;;4969414;28;20022;-83
2021/08/23 10:41:56;;;;;;;14.05;11.23;;;20.60;98.30;;;;;;4987718;28;20030;-83
2021/08/23 10:44:33;;;;;;;15.45;11.13;;;20.60;98.60;;;;;;4973753;28;20089;-83
2021/08/23 10:47:06;;;;;;;13.32;10.95;;;20.60;98.20;;;;;;4973980;28;20033;-83
2021/08/23 10:49:46;;;;;;;15.63;10.65;;;20.70;98.00;;;;;;4971902;28;20049;-83
2021/08/23 10:52:17;;;;;;;14.48;10.05;;;20.70;98.30;;;;;;4974067;28;20035;-84
2021/08/23 10:54:47;;;;;;;13.80;11.50;;;20.70;98.30;;;;;;4978513;28;20030;-83
2021/08/23 10:57:18;;;;;;;16.98;13.63;;;20.60;98.00;;;;;;4976142;28;20507;-84
2021/08/23 10:59:56;;;;;;;15.38;13.35;;;20.60;98.10;;;;;;4974336;28;20034;-83
2021/08/23 11:02:30;;;;;;;14.60;12.50;;;20.50;98.40;;;;;;4975355;28;20027;-84
2021/08/23 11:05:01;;;;;;;12.40;10.73;;;20.60;98.30;;;;;;4975008;28;20037;-83
2021/08/23 11:07:29;;;;;;;13.65;11.27;;;20.60;98.40;;;;;;4977365;28;20093;-84
2021/08/23 11:10:22;;;;;;;15.32;11.52;;;20.60;98.30;;;;;;4973291;28;20034;-83
2021/08/23 11:12:54;;;;;;;13.30;11.50;;;20.60;98.40;;;;;;4976519;28;20035;-84
2021/08/23 11:15:32;;;;;;;12.32;9.98;;;20.70;98.10;;;;;;4975010;28;20035;-84
2021/08/23 11:18:01;;;;;;;12.60;11.15;;;20.70;98.40;;;;;;4974593;28;20504;-83
2021/08/23 11:20:30;;;;;;;14.85;11.70;;;20.70;98.40;;;;;;4975571;28;20026;-83
2021/08/23 11:22:58;;;;;;;15.60;11.15;;;20.70;98.20;;;;;;4975080;28;20022;-84
2021/08/23 11:25:42;;;;;;;13.32;11.95;;;20.70;98.20;;;;;;4973740;28;20086;-83
2021/08/23 11:28:11;;;;;;;13.10;10.32;;;20.70;98.30;;;;;;4975595;28;20023;-83
2021/08/23 11:30:38;;;;;;;;;;;20.70;98.60;;;;;;4974919;28;20045;-84
2021/08/23 11:33:05;;;;;;;12.43;10.40;;;20.70;98.60;;;;;;4975667;28;19937;-83
2021/08/23 11:35:31;;;;;;;13.60;10.73;;;20.80;98.40;;;;;;4972544;28;20050;-83
2021/08/23 11:38:05;;;;;;;13.60;10.73;;;20.80;98.00;;;;;;4973326;28;20034;-83
2021/08/23 11:40:33;;;;;;;13.82;11.20;;;20.80;98.00;;;;;;4970329;28;20027;-83
2021/08/23 11:43:01;;;;;;;13.38;10.68;;;20.90;98.00;;;;;;4971664;28;20023;-83
2021/08/23 11:45:30;;;;;;;16.42;12.15;;;20.90;97.90;;;;;;4973539;28;20479;-83
2021/08/23 11:47:56;;;;;;;;;;;20.80;97.90;;;;;;4974231;28;20035;-83
2021/08/23 11:50:22;;;;;;;11.52;9.38;;;20.80;97.90;;;;;;4971258;28;20209;-83
2021/08/23 11:52:49;;;;;;;15.80;12.40;;;20.80;98.20;;;;;;4971761;28;20030;-84
2021/08/23 11:55:25;;;;;;;15.90;12.23;;;20.90;97.80;;;;;;4970611;28;20038;-83
2021/08/23 11:58:05;;;;;;;13.82;10.48;;;21.00;97.60;;;;;;4972037;28;20031;-83
2021/08/23 12:00:31;;;;;;;14.35;11.55;;;21.00;97.80;;;;;;4972659;28;20451;-84
2021/08/23 12:03:07;;;;;;;12.35;9.57;;;21.00;98.20;;;;;;4972091;28;20077;-83
2021/08/23 12:05:35;;;;;;;10.52;7.80;;;21.10;97.90;;;;;;4971547;28;20026;-83
2021/08/23 12:08:01;;;;;;;12.02;8.18;;;21.10;97.10;;;;;;4972365;28;20058;-83
2021/08/23 12:10:36;;;;;;;9.48;7.07;;;21.00;97.10;;;;;;4970359;28;20026;-84
2021/08/23 12:13:09;;;;;;;9.25;7.30;;;21.00;97.20;;;;;;4975612;28;20027;-83
2021/08/23 12:15:37;;;;;;;10.30;7.38;;;21.00;97.20;;;;;;4976980;28;20483;-84
2021/08/23 12:18:12;;;;;;;13.57;11.30;;;21.10;97.30;;;;;;4976988;28;20027;-83
2021/08/23 12:20:38;;;;;;;13.00;11.63;;;21.10;96.80;;;;;;4976205;28;20114;-83
2021/08/23 12:23:04;;;;;;;15.38;13.82;;;21.10;96.70;;;;;;4976732;28;20162;-83
2021/08/23 12:25:30;;;;;;;15.00;12.77;;;21.10;96.50;;;;;;4973461;28;20118;-83
2021/08/23 12:27:55;;;;;;;12.82;10.82;;;21.10;96.20;;;;;;4975247;28;20170;-83
2021/08/23 12:30:33;;;;;;;12.75;10.20;;;21.10;96.30;;;;;;4974100;28;20487;-84
2021/08/23 12:32:59;;;;;;;12.00;8.38;;;21.00;96.60;;;;;;4975157;28;20398;-84
2021/08/23 12:35:32;;;;;;;9.23;7.70;;;21.00;96.90;;;;;;4974715;28;20038;-83
2021/08/23 12:37:58;;;;;;;9.88;8.45;;;21.00;97.10;;;;;;4976455;28;20029;-84